Aérodrome :
LOGIN :

S'inscrire | Disclaimer

   EN    FR    IT 

 










Légende :    VFR   VFR Marginal   IFR   IFR Intensif   IFR Très Intensif
Visi : 
Plafond : 
>= 8 km
>= 3000ft
5 à 8 km
1000 à 3000 ft
1500m à 5 km
500 à 1000 ft
800 à 1500m
200 à 500 ft
< 800m
< 200 ft
Symboles :   Orages  Brouillard  Fortes neiges  Fortes précipitations  Vent > 20 kt
SIGMETs :   Divers  Orages  Givrage  Turbulence  Onde Orograph.  Cendres Volcan.







- Altitude de l'aérodrome : 529 ft
- Code IATA : CHR
- Voir les cartes d'approche


LFLX - Chateauroux

DERNIER METAR :
  • 190400Z AUTO 22004KT 4900 BR VV/// 02/02 Q1023 TEMPO 0400 FG

METARs EXPIRÉS :
  • 190330Z AUTO 23005KT 1500 0900 R21/1200U BCFG VV/// 02/02 Q1024 TEMPO 0400 FG
  • 190300Z AUTO 22007KT 0900 0700 R21/1000D FG VV/// 01/01 Q1024 TEMPO 0400 FG
  • 190230Z AUTO 24005KT 0700 0550 R21/0650N FG VV/// 01/01 Q1024 TEMPO 0400 FG
  • 190200Z AUTO 25005KT 0650 R21/0700D FG VV/// 01/01 Q1024 TEMPO 0400 FG

TAF TAF LFLX
Valide du 19 à 00h jusqu'au 20 à 06h UTC


182300Z 1900/2006 24005KT 3000 BR OVC004
PROB40
TEMPO 1900/1908 0400 FG VV///
TEMPO 1908/1913 2000 -DZRA OVC004
BECMG 1913/1916 8000 BKN016
BECMG 1921/1924 3000 BR BKN003
Pas de NOTAMs connus pour ce terrain.



MET'MAP, la Météo Aéronautique d'un coup d'oeil ! - Copyright ORBIFLY Décembre 2007 - Disclaimer

ORBIFLY MET'MAP TEAM :

Programmation & Développement : Alexandra Zaïnal
Conception & Développement : Baudouin d'Aumeries
Co-Programmation & Développement : Marc-Olivier Méhu
Soutien technique & logistique : Manuel Goepfert

Contact : metmap@orbifly.com




SOURCES & CREDITS :

   NOAA